Filip Moder

Chefscout - Jagiellonia
4 Apr 2028
Dienstag
Verarbeitung

Persönlichkeit

Anpassungsfähigkeit (3) Ehrgeiz (19) Kontroverse (9) Loyalität (2) Druck (7) Professionalität (8) Fairness (10) Temperament (9)

Profil

Trainerstil Demokratisch
Lizenz Kontinentale C
Entschlossenheit 5
Menschenführung 13
Motivation 13
Disziplin 11
Arbeitszufriedenheit
100%
Ermüdung
0%
Rolle Chefscout
Gehalt 87.0K p/W
Vertrag 14.03.2030

Leistung

Verhalten Gut
Trainingseffektivität
34%
Spielerentwicklung
55%
Verletzungsprävention
60%
Taktische Umsetzung
60%

Aktuell beobachtet

80
Spieler Verein Status Fähigkeit Vertrauen Beobachtet Zuletzt beobachtet Letzte Stimme
Miguel Figueiredo Benfica Aktiv 119 / 128 40% 6 31.01.2028 -
Ronan Kpakio Cardiff City Aktiv 121 / 131 40% 1 31.01.2028 -
Martín Jiménez Audax Italiano Aktiv 96 / 104 40% 1 03.01.2028 -
Jair Collahuazo Kudrivka Aktiv 98 / 111 40% 1 03.01.2028 -
Danylo Malov Lechia Aktiv 94 / 105 69% 1 01.01.2028 Befürworten
Jaydee Canvot Crystal Palace Aktiv 136 / 135 40% 1 01.01.2028 -
Celías Ingenthron Racing Club Aktiv 119 / 145 40% 1 01.01.2028 -
Facundo Balatti Penarol Aktiv 104 / 110 40% 2 20.08.2027 -
Davide Bartesaghi AC Milan Aktiv 130 / 131 40% 2 20.08.2027 -
Felipe Faúndez O'Higgins Aktiv 98 / 86 40% 1 20.08.2027 -
Leonardo Mendicino Bari Aktiv 122 / 117 40% 1 18.08.2027 -
Simón Pinto Palestino Aktiv 105 / 124 40% 2 09.08.2027 -
Riley Owen Bristol Rovers Aktiv 113 / 114 40% 8 05.08.2027 -
Ezra Mayers West Ham United Aktiv 118 / 115 40% 2 05.08.2027 -
Eliás Montiel Athletic Bilbao Aktiv 129 / 133 40% 5 05.08.2027 -
Jenson Jones Peterborough United Aktiv 103 / 112 40% 6 04.08.2027 -
Dylan Lawlor Cardiff City Aktiv 120 / 136 40% 5 02.08.2027 -
Ollie Scarles West Ham United Aktiv 138 / 152 40% 4 02.08.2027 -
Mats Egbring Heerenveen Aktiv 101 / 99 40% 5 31.07.2027 -
Chibueze Oputa Rangers International Aktiv 80 / 113 40% 1 31.07.2027 -
Afriyie Sulemana Hasaacas Aktiv 85 / 121 40% 4 30.07.2027 -
Martim Cunha Porto Aktiv 111 / 125 40% 6 29.07.2027 -
Godwin Oham Warri Wolves Aktiv 92 / 86 40% 3 29.07.2027 -
Christ Inao Oulaï Fiorentina Aktiv 138 / 139 40% 2 28.07.2027 -
Marco Oroná Antofagasta Aktiv 87 / 103 40% 1 27.07.2027 -
Elias Baum Eintracht Frankfurt Aktiv 133 / 143 40% 1 27.07.2027 -
Joe Knight Stevenage Aktiv 109 / 116 40% 3 26.07.2027 -
Honest Ahanor Fiorentina Aktiv 137 / 142 40% 1 26.07.2027 -
Ismaël Baouf Cambuur Aktiv 123 / 128 40% 2 25.07.2027 -
Bahmed Deuff FC Metz Aktiv 111 / 128 40% 5 24.07.2027 -
Simone Kosijer Triestina Aktiv 97 / 110 40% 6 22.07.2027 -
Teo Rodríguez Pagano San Lorenzo Aktiv 128 / 102 40% 3 22.07.2027 -
Alessio Insignito Spezia Aktiv 94 / 110 40% 2 21.07.2027 -
Mattia Puzone Siracusa Aktiv 94 / 94 40% 1 21.07.2027 -
Nathan Tinsdale Newport County Aktiv 97 / 84 40% 1 20.07.2027 -
T-Jay Parfitt Colchester United Aktiv 100 / 103 40% 2 16.07.2027 -
Kazunari Kita Real Sociedad Aktiv 97 / 121 40% 4 15.07.2027 -
Rafael Vargas Cortulua Aktiv 91 / 100 40% 3 15.07.2027 -
Edwin Asamoah Berekum Chelsea Aktiv 92 / 66 40% 2 14.07.2027 -
Joe Bauress Grimsby Town Aktiv 91 / 95 40% 1 13.07.2027 -
Owen Foye Swindon Town Aktiv 79 / 94 40% 2 11.07.2027 -
Rhys Chadwick Peterborough United Aktiv 100 / 106 40% 1 10.07.2027 -
Zane Albarus Colchester United Aktiv 101 / 89 40% 1 07.07.2027 -
Milan Roganović Partizan Aktiv 117 / 110 40% 5 05.07.2027 -
Thamsanqa Phiri Free State Stars Aktiv 89 / 99 40% 2 03.07.2027 -
Denys Smetana Inhulets Aktiv 100 / 96 40% 1 03.07.2027 -
Mauricio Amaro Atlanta United FC Aktiv 116 / 144 40% 2 30.06.2027 -
Daniel Banjaqui Benfica Aktiv 121 / 116 40% 3 30.06.2027 -
Gady Beyuku Modena Aktiv 109 / 124 40% 3 27.06.2027 -
Jan Bürger Preston Aktiv 112 / 125 40% 1 26.06.2027 -
Fabián Correa Barranquilla Aktiv 93 / 80 40% 2 25.06.2027 -
Alexis Vossah Toulouse FC Aktiv 123 / 117 40% 3 23.06.2027 -
Pedro Vian Seewald Arzignano Aktiv 91 / 108 40% 1 22.06.2027 -
Jack Shorrock Port Vale Aktiv 92 / 91 40% 1 21.06.2027 -
Alessandro Ventre Vis Pesaro Aktiv 95 / 98 40% 1 18.06.2027 -
Bernardo Lima Porto Aktiv 107 / 107 40% 1 18.06.2027 -
Tiago Freitas Benfica Aktiv 106 / 132 40% 2 10.06.2027 -
Juan Giménez Athletic Bilbao Aktiv 125 / 116 40% 1 03.06.2027 -
James Dornelly Peterborough United Aktiv 107 / 94 40% 4 30.01.2027 -
Elie N'Gatta Sochaux Aktiv 94 / 91 40% 2 26.01.2027 -
Taras Mykhavko Dynamo Kyiv Aktiv 126 / 139 40% 1 24.01.2027 -
Brandon Khela Peterborough United Aktiv 92 / 102 40% 1 11.01.2027 -
Jakub Czerwiński Aktiv 113 / 100 65% 1 07.01.2027 Befürworten
Lucas Mbamba Westerlo Aktiv 79 / 105 40% 1 07.01.2027 -
Dimpho Madalane FC Diarra Aktiv 90 / 68 40% 1 05.01.2027 -
Daniel Dennis Ikorodu City Aktiv 103 / 71 40% 1 28.08.2026 -
Philippe Ndinga Philadelphia Union Aktiv 103 / 134 40% 1 26.08.2026 -
Morrison Agyemang Charlotte Football Club Aktiv 116 / 123 40% 1 26.08.2026 -
Felipe Obradovich Rayo Vallecano Aktiv 100 / 116 40% 1 25.08.2026 -
Lucas Quintana Cerro Porteno Aktiv 105 / 118 40% 1 19.08.2026 -
Santiago Espíndola River Plate Aktiv 102 / 110 40% 1 19.08.2026 -
Elías Báez Atlanta United FC Aktiv 129 / 108 40% 1 19.08.2026 -
Luca Bombino San Diego Football Club Aktiv 112 / 90 40% 1 17.08.2026 -
Kacper Urbański Gornik Zabrze Aktiv 120 / 137 40% 1 11.08.2026 -
Lucas Herrington Hull City Aktiv 97 / 105 40% 1 10.08.2026 -
Furkan Demir Rapid Wien Aktiv 125 / 134 40% 1 10.08.2026 -
Justin-Noël Kalumba Mallorca Aktiv 110 / 112 40% 1 06.08.2026 -
Gísli Gottskálk Þórðarson Lech Verloren 106 / 95 40% 1 06.08.2026 -
Callum Olusesi Tottenham Aktiv 108 / 108 40% 1 04.08.2026 -
Marcos López Banfield Aktiv 86 / 88 40% 1 03.08.2026 -